Time;durP1;ratioP1;P1;durP2;ratioP2;P2;SDS_P1;SDS_P2;PMS_P1;PMS_P2;Temp;Humidity;BMP_temperature;BMP_pressure;BME280_temperature;BME280_humidity;BME280_pressure;Samples;Min_cycle;Max_cycle;Signal;HPM_P1;HPM_P2
2022/04/10 00:01:43;;;;;;;5.30;1.52;;;;;;;;;;5087786;28;20036;-67
2022/04/10 00:04:09;;;;;;;5.70;1.10;;;;;;;;;;5088208;28;20108;-67
2022/04/10 00:06:35;;;;;;;5.10;1.40;;;;;;;;;;5088341;28;20048;-67
2022/04/10 00:09:01;;;;;;;7.00;1.42;;;;;;;;;;5087499;28;20459;-66
2022/04/10 00:11:29;;;;;;;4.75;1.30;;;;;;;;;;5087811;28;20080;-66
2022/04/10 00:13:55;;;;;;;4.28;1.30;;;;;;;;;;5090408;28;20119;-66
2022/04/10 00:16:22;;;;;;;3.30;1.00;;;;;;;;;;5092505;28;20048;-66
2022/04/10 00:18:48;;;;;;;3.47;1.05;;;;;;;;;;5092118;28;20048;-66
2022/04/10 00:21:14;;;;;;;3.85;1.30;;;;;;;;;;5092023;28;20051;-66
2022/04/10 00:23:40;;;;;;;5.47;1.60;;;;;;;;;;5091856;28;20130;-68
2022/04/10 00:26:06;;;;;;;4.95;1.40;;;;;;;;;;5073954;28;20048;-68
2022/04/10 00:28:32;;;;;;;4.22;1.30;;;;;;;;;;5091905;28;20534;-67
2022/04/10 00:30:58;;;;;;;6.20;1.15;;;;;;;;;;5091793;28;20040;-64
2022/04/10 00:33:24;;;;;;;4.45;1.20;;;;;;;;;;5092087;28;20486;-66
2022/04/10 00:35:50;;;;;;;8.35;1.40;;;;;;;;;;5091054;28;20048;-67
2022/04/10 00:38:16;;;;;;;6.75;1.55;;;;;;;;;;5091706;28;20047;-66
2022/04/10 00:40:42;;;;;;;4.07;1.20;;;;;;;;;;5091626;28;20046;-66
2022/04/10 00:43:08;;;;;;;5.30;1.33;;;;;;;;;;5091286;28;20363;-66
2022/04/10 00:45:34;;;;;;;3.50;1.23;;;;;;;;;;5091677;28;20043;-66
2022/04/10 00:48:00;;;;;;;7.75;1.60;;;;;;;;;;5091626;28;20067;-66
2022/04/10 00:50:27;;;;;;;6.85;1.17;;;;;;;;;;5091616;28;20048;-66
2022/04/10 00:52:53;;;;;;;7.60;1.55;;;;;;;;;;5090985;28;20484;-66
2022/04/10 00:55:19;;;;;;;4.82;1.40;;;;;;;;;;5091156;28;20130;-66
2022/04/10 00:57:46;;;;;;;4.70;1.40;;;;;;;;;;5090680;28;20054;-66
2022/04/10 01:00:13;;;;;;;6.10;1.33;;;;;;;;;;5090947;28;20044;-66
2022/04/10 01:02:39;;;;;;;5.28;1.40;;;;;;;;;;5091006;28;20055;-66
2022/04/10 01:05:06;;;;;;;4.57;1.10;;;;;;;;;;5091135;28;20051;-66
2022/04/10 01:07:33;;;;;;;5.10;1.52;;;;;;;;;;5091059;28;20470;-66
2022/04/10 01:09:59;;;;;;;4.75;1.27;;;;;;;;;;5090038;28;20469;-66
2022/04/10 01:12:25;;;;;;;3.55;1.40;;;;;;;;;;5090738;28;20083;-66
2022/04/10 01:14:51;;;;;;;6.85;1.40;;;;;;;;;;5091066;28;20048;-66
2022/04/10 01:17:18;;;;;;;7.38;1.90;;;;;;;;;;5090193;28;20044;-66
2022/04/10 01:19:44;;;;;;;6.68;1.20;;;;;;;;;;5090549;28;20111;-66
2022/04/10 01:22:10;;;;;;;10.15;1.50;;;;;;;;;;5090429;28;20047;-66
2022/04/10 01:24:40;;;;;;;5.43;1.38;;;;;;;;;;5089019;28;20047;-66
2022/04/10 01:27:06;;;;;;;5.82;1.25;;;;;;;;;;5090315;28;20040;-66
2022/04/10 01:29:32;;;;;;;4.18;1.10;;;;;;;;;;5090283;28;20147;-66
2022/04/10 01:31:59;;;;;;;2.80;1.02;;;;;;;;;;5089969;28;20040;-66
2022/04/10 01:34:25;;;;;;;5.68;1.65;;;;;;;;;;5090377;28;20414;-66
2022/04/10 01:36:51;;;;;;;5.47;1.20;;;;;;;;;;5091035;28;20098;-66
2022/04/10 01:39:18;;;;;;;3.88;1.38;;;;;;;;;;5090808;28;20101;-66
2022/04/10 01:41:46;;;;;;;4.57;1.42;;;;;;;;;;5090386;28;20131;-66
2022/04/10 01:44:12;;;;;;;6.50;1.70;;;;;;;;;;5090540;28;20054;-66
2022/04/10 01:46:38;;;;;;;7.43;1.52;;;;;;;;;;5090758;28;20044;-66
2022/04/10 01:49:05;;;;;;;5.55;1.40;;;;;;;;;;5090737;28;20143;-66
2022/04/10 01:51:32;;;;;;;4.95;1.40;;;;;;;;;;5090530;28;20090;-66
2022/04/10 01:53:58;;;;;;;4.50;1.40;;;;;;;;;;5090255;28;20048;-66
2022/04/10 01:56:24;;;;;;;5.88;1.85;;;;;;;;;;5089959;28;20470;-66
2022/04/10 01:58:54;;;;;;;5.35;1.20;;;;;;;;;;5090099;28;20040;-66
2022/04/10 02:01:21;;;;;;;4.88;1.45;;;;;;;;;;5090216;28;20048;-66
2022/04/10 02:03:47;;;;;;;6.57;1.73;;;;;;;;;;5090579;28;20048;-66
2022/04/10 02:06:14;;;;;;;4.90;1.25;;;;;;;;;;5089995;28;20040;-66
2022/04/10 02:08:42;;;;;;;4.43;1.50;;;;;;;;;;5090358;28;20048;-66
2022/04/10 02:11:18;;;;;;;4.25;1.40;;;;;;;;;;5089918;28;20421;-66
2022/04/10 02:13:44;;;;;;;4.15;1.48;;;;;;;;;;5089972;28;20047;-66
2022/04/10 02:16:14;;;;;;;5.28;1.25;;;;;;;;;;5071401;28;20039;-66
2022/04/10 02:18:40;;;;;;;4.15;1.27;;;;;;;;;;5090120;28;20055;-66
2022/04/10 02:21:06;;;;;;;4.13;1.50;;;;;;;;;;5089910;28;20056;-66
2022/04/10 02:23:32;;;;;;;6.00;1.27;;;;;;;;;;5090212;28;20133;-66
2022/04/10 02:25:58;;;;;;;4.40;1.30;;;;;;;;;;5089539;28;20071;-66
2022/04/10 02:28:24;;;;;;;5.93;1.30;;;;;;;;;;5089937;28;20048;-66
2022/04/10 02:30:50;;;;;;;4.20;1.20;;;;;;;;;;5089451;28;20157;-66
2022/04/10 02:33:17;;;;;;;5.53;1.30;;;;;;;;;;5089699;28;20051;-66
2022/04/10 02:35:45;;;;;;;6.75;2.22;;;;;;;;;;5089278;28;20060;-66
2022/04/10 02:38:12;;;;;;;6.18;1.15;;;;;;;;;;5089967;28;20462;-66
2022/04/10 02:40:38;;;;;;;5.05;1.33;;;;;;;;;;5089146;28;20036;-66
2022/04/10 02:43:04;;;;;;;5.38;1.50;;;;;;;;;;5089525;28;20055;-66
2022/04/10 02:45:30;;;;;;;6.28;1.20;;;;;;;;;;5089643;28;20054;-66
2022/04/10 02:47:56;;;;;;;9.43;2.15;;;;;;;;;;5090009;28;20040;-66
2022/04/10 02:50:22;;;;;;;4.50;1.33;;;;;;;;;;5089386;28;20048;-66
2022/04/10 02:52:50;;;;;;;5.15;1.63;;;;;;;;;;5089420;28;20989;-67
2022/04/10 02:55:16;;;;;;;4.65;1.27;;;;;;;;;;5088889;28;20058;-67
2022/04/10 02:57:42;;;;;;;5.18;1.48;;;;;;;;;;5089135;28;20358;-67
2022/04/10 03:00:08;;;;;;;2.80;1.10;;;;;;;;;;5089102;28;20139;-67
2022/04/10 03:02:34;;;;;;;5.45;1.65;;;;;;;;;;5089309;28;20090;-67
2022/04/10 03:05:00;;;;;;;5.15;1.55;;;;;;;;;;5089002;28;20040;-66
2022/04/10 03:07:26;;;;;;;4.70;1.30;;;;;;;;;;5089464;28;20059;-66
2022/04/10 03:09:52;;;;;;;8.68;1.85;;;;;;;;;;5089053;28;20404;-67
2022/04/10 03:12:18;;;;;;;4.88;1.35;;;;;;;;;;5089306;28;20478;-66
2022/04/10 03:14:44;;;;;;;6.40;1.80;;;;;;;;;;5088917;28;20036;-67
2022/04/10 03:17:10;;;;;;;7.28;1.40;;;;;;;;;;5089100;28;20139;-67
2022/04/10 03:19:36;;;;;;;8.90;2.00;;;;;;;;;;5088597;28;20123;-67
2022/04/10 03:22:02;;;;;;;10.32;2.47;;;;;;;;;;5088866;28;20450;-67
2022/04/10 03:24:28;;;;;;;9.15;1.67;;;;;;;;;;5088683;28;20131;-67
2022/04/10 03:26:54;;;;;;;8.73;1.48;;;;;;;;;;5088685;28;20092;-67
2022/04/10 03:29:20;;;;;;;6.65;1.83;;;;;;;;;;5088884;28;20048;-67
2022/04/10 03:31:46;;;;;;;6.40;1.40;;;;;;;;;;5088338;28;20139;-67
2022/04/10 03:34:12;;;;;;;4.82;1.15;;;;;;;;;;5069995;28;20091;-67
2022/04/10 03:36:38;;;;;;;4.82;1.35;;;;;;;;;;5088834;28;20422;-67
2022/04/10 03:39:04;;;;;;;5.53;1.33;;;;;;;;;;5088653;28;20040;-67
2022/04/10 03:41:30;;;;;;;3.78;1.20;;;;;;;;;;5088533;28;20068;-67
2022/04/10 03:43:56;;;;;;;4.07;1.20;;;;;;;;;;5088403;28;20324;-67
2022/04/10 03:46:23;;;;;;;5.60;1.23;;;;;;;;;;5088098;28;20044;-67
2022/04/10 03:48:49;;;;;;;4.70;1.05;;;;;;;;;;5087721;28;20055;-67
2022/04/10 03:51:15;;;;;;;4.57;1.50;;;;;;;;;;5088366;28;20040;-66
2022/04/10 03:53:41;;;;;;;3.20;1.15;;;;;;;;;;5088162;28;20040;-64
2022/04/10 03:56:07;;;;;;;10.32;1.20;;;;;;;;;;5088507;28;20036;-65
2022/04/10 03:58:33;;;;;;;3.38;1.10;;;;;;;;;;5088029;28;20178;-65
2022/04/10 04:00:59;;;;;;;5.72;1.10;;;;;;;;;;5088064;28;20101;-66
2022/04/10 04:03:25;;;;;;;3.60;0.90;;;;;;;;;;5070554;28;20055;-66
2022/04/10 04:05:52;;;;;;;3.85;1.15;;;;;;;;;;5088243;28;20141;-65
2022/04/10 04:08:19;;;;;;;7.15;1.35;;;;;;;;;;5088001;28;20044;-65
2022/04/10 04:10:45;;;;;;;6.00;1.30;;;;;;;;;;5087613;28;20048;-65
2022/04/10 04:13:11;;;;;;;3.60;1.13;;;;;;;;;;5088006;28;20044;-65
2022/04/10 04:15:37;;;;;;;2.75;0.90;;;;;;;;;;5088183;28;20048;-66
2022/04/10 04:18:03;;;;;;;2.85;1.08;;;;;;;;;;5087510;28;20044;-66
2022/04/10 04:20:29;;;;;;;4.53;1.00;;;;;;;;;;5088167;28;20101;-65
2022/04/10 04:22:55;;;;;;;3.28;1.20;;;;;;;;;;5087609;28;20044;-66
2022/04/10 04:25:21;;;;;;;3.88;1.00;;;;;;;;;;5087990;28;20550;-66
2022/04/10 04:27:47;;;;;;;2.55;0.98;;;;;;;;;;5087742;28;20044;-65
2022/04/10 04:30:13;;;;;;;3.58;0.93;;;;;;;;;;5087980;28;20105;-65
2022/04/10 04:32:39;;;;;;;7.70;1.40;;;;;;;;;;5087877;28;20121;-65
2022/04/10 04:35:06;;;;;;;4.13;1.02;;;;;;;;;;5087624;28;20451;-65
2022/04/10 04:37:32;;;;;;;4.28;1.20;;;;;;;;;;5087539;28;20072;-65
2022/04/10 04:39:58;;;;;;;3.50;1.00;;;;;;;;;;5087542;28;20067;-66
2022/04/10 04:42:24;;;;;;;3.55;1.00;;;;;;;;;;5087607;28;20040;-66
2022/04/10 04:44:51;;;;;;;6.03;1.25;;;;;;;;;;5087308;28;20068;-66
2022/04/10 04:47:17;;;;;;;3.30;1.00;;;;;;;;;;5087239;28;20052;-66
2022/04/10 04:49:43;;;;;;;4.82;1.00;;;;;;;;;;5087500;28;20048;-66
2022/04/10 04:52:09;;;;;;;2.72;0.90;;;;;;;;;;5087256;28;20052;-66
2022/04/10 04:54:35;;;;;;;4.50;0.88;;;;;;;;;;5087328;28;20058;-66
2022/04/10 04:57:01;;;;;;;5.15;1.20;;;;;;;;;;5069294;28;20087;-66
2022/04/10 04:59:27;;;;;;;4.78;1.00;;;;;;;;;;5088362;28;20383;-66
2022/04/10 05:01:54;;;;;;;1.77;0.80;;;;;;;;;;5091356;28;20464;-66
2022/04/10 05:04:20;;;;;;;3.83;1.00;;;;;;;;;;5084511;28;20040;-65
2022/04/10 05:06:46;;;;;;;1.63;0.80;;;;;;;;;;5071019;28;20151;-65
2022/04/10 05:09:12;;;;;;;4.15;0.90;;;;;;;;;;5070419;28;20088;-65
2022/04/10 05:11:38;;;;;;;3.75;1.08;;;;;;;;;;5090783;28;20040;-65
2022/04/10 05:14:04;;;;;;;3.83;0.93;;;;;;;;;;5091331;28;20044;-65
2022/04/10 05:16:31;;;;;;;3.00;0.50;;;;;;;;;;5073065;28;20056;-65
2022/04/10 05:18:57;;;;;;;5.22;1.00;;;;;;;;;;5077524;28;20691;-65
2022/04/10 05:21:23;;;;;;;2.25;0.80;;;;;;;;;;5071177;28;20143;-65
2022/04/10 05:23:49;;;;;;;2.60;0.75;;;;;;;;;;5070873;28;20131;-65
2022/04/10 05:26:15;;;;;;;5.20;1.00;;;;;;;;;;5070536;28;20063;-67
2022/04/10 05:28:41;;;;;;;4.32;0.95;;;;;;;;;;5070626;28;20063;-68
2022/04/10 05:31:07;;;;;;;8.32;1.08;;;;;;;;;;5070806;28;20057;-65
2022/04/10 05:33:34;;;;;;;6.45;1.23;;;;;;;;;;5070119;28;20054;-65
2022/04/10 05:36:00;;;;;;;9.27;1.27;;;;;;;;;;5070349;28;20475;-66
2022/04/10 05:38:26;;;;;;;7.97;1.10;;;;;;;;;;5070783;28;20139;-66
2022/04/10 05:40:53;;;;;;;6.00;1.08;;;;;;;;;;5070095;28;20048;-66
2022/04/10 05:43:22;;;;;;;6.57;1.30;;;;;;;;;;5070053;28;20061;-66
2022/04/10 05:45:49;;;;;;;6.03;1.00;;;;;;;;;;5070720;28;20045;-66
2022/04/10 05:48:15;;;;;;;8.05;1.50;;;;;;;;;;5070140;28;20076;-66
2022/04/10 05:50:41;;;;;;;4.78;0.98;;;;;;;;;;5070121;28;20041;-66
2022/04/10 05:53:07;;;;;;;5.90;1.00;;;;;;;;;;5052325;28;20055;-66
2022/04/10 05:55:33;;;;;;;3.72;0.93;;;;;;;;;;5069715;28;20098;-66
2022/04/10 05:58:01;;;;;;;10.55;1.20;;;;;;;;;;5070057;28;20052;-66
2022/04/10 06:00:27;;;;;;;3.55;0.70;;;;;;;;;;5070356;28;20403;-66
2022/04/10 06:02:53;;;;;;;5.07;0.93;;;;;;;;;;5069873;28;20128;-66
2022/04/10 06:05:19;;;;;;;2.97;0.80;;;;;;;;;;5069929;28;20041;-66
2022/04/10 06:07:46;;;;;;;5.20;1.40;;;;;;;;;;5070292;28;20084;-66
2022/04/10 06:10:12;;;;;;;3.55;0.85;;;;;;;;;;5068736;28;20048;-66
2022/04/10 06:12:38;;;;;;;1.80;0.63;;;;;;;;;;5069042;28;20044;-67
2022/04/10 06:15:04;;;;;;;3.00;0.80;;;;;;;;;;5069553;28;20045;-65
2022/04/10 06:17:33;;;;;;;4.20;0.80;;;;;;;;;;5069778;28;20044;-65
2022/04/10 06:19:59;;;;;;;2.78;0.90;;;;;;;;;;5069493;28;20066;-66
2022/04/10 06:22:25;;;;;;;4.15;0.80;;;;;;;;;;5070117;28;20040;-66
2022/04/10 06:24:52;;;;;;;4.78;1.05;;;;;;;;;;5070031;28;20051;-66
2022/04/10 06:27:19;;;;;;;4.55;1.02;;;;;;;;;;5069786;28;20074;-66
2022/04/10 06:29:45;;;;;;;3.53;0.90;;;;;;;;;;5069616;28;20048;-67
2022/04/10 06:32:11;;;;;;;4.05;1.17;;;;;;;;;;5069068;28;20055;-66
2022/04/10 06:34:37;;;;;;;5.03;1.45;;;;;;;;;;5069443;28;20060;-66
2022/04/10 06:37:04;;;;;;;4.75;1.23;;;;;;;;;;5069196;28;20060;-66
2022/04/10 06:39:30;;;;;;;3.25;0.80;;;;;;;;;;5069523;28;20181;-66
2022/04/10 06:41:56;;;;;;;4.80;1.30;;;;;;;;;;5068978;28;20047;-66
2022/04/10 06:44:22;;;;;;;3.58;1.10;;;;;;;;;;5069603;28;20041;-66
2022/04/10 06:46:48;;;;;;;4.35;1.00;;;;;;;;;;5068732;28;20045;-66
2022/04/10 06:49:14;;;;;;;2.97;1.00;;;;;;;;;;5069035;28;20044;-66
2022/04/10 06:51:41;;;;;;;11.10;1.85;;;;;;;;;;5069406;28;20075;-66
2022/04/10 06:54:07;;;;;;;3.28;0.73;;;;;;;;;;5069192;28;20044;-66
2022/04/10 06:56:33;;;;;;;4.22;1.10;;;;;;;;;;5068486;28;20101;-66
2022/04/10 06:58:59;;;;;;;4.30;0.70;;;;;;;;;;5069282;28;20076;-65
2022/04/10 07:01:25;;;;;;;3.20;0.90;;;;;;;;;;5069206;28;20052;-65
2022/04/10 07:03:51;;;;;;;4.93;1.92;;;;;;;;;;5068912;28;20174;-65
2022/04/10 07:06:17;;;;;;;7.15;1.20;;;;;;;;;;5069157;28;20477;-66
2022/04/10 07:08:43;;;;;;;4.60;1.10;;;;;;;;;;5068847;28;20048;-68
2022/04/10 07:11:09;;;;;;;11.38;1.60;;;;;;;;;;5068555;28;20445;-68
2022/04/10 07:13:36;;;;;;;6.80;0.82;;;;;;;;;;5068968;28;20451;-68
2022/04/10 07:16:02;;;;;;;7.22;1.30;;;;;;;;;;5068883;28;20083;-69
2022/04/10 07:18:28;;;;;;;4.65;0.93;;;;;;;;;;5068866;28;20060;-69
2022/04/10 07:20:54;;;;;;;3.45;0.73;;;;;;;;;;5068271;28;20048;-69
2022/04/10 07:23:42;;;;;;;4.72;0.98;;;;;;;;;;5068718;28;20044;-68
2022/04/10 07:26:12;;;;;;;4.97;0.70;;;;;;;;;;5068797;28;20062;-68
2022/04/10 07:28:38;;;;;;;4.03;0.85;;;;;;;;;;5071776;28;20040;-68
2022/04/10 07:31:05;;;;;;;3.08;0.65;;;;;;;;;;5078672;28;20410;-68
2022/04/10 07:33:31;;;;;;;7.07;0.77;;;;;;;;;;5084921;28;20036;-68
2022/04/10 07:35:57;;;;;;;4.28;0.93;;;;;;;;;;5086904;28;20098;-69
2022/04/10 07:38:23;;;;;;;2.22;0.80;;;;;;;;;;5087490;28;20052;-70
2022/04/10 07:40:49;;;;;;;3.22;0.82;;;;;;;;;;5085838;28;20428;-68
2022/04/10 07:43:15;;;;;;;2.25;0.65;;;;;;;;;;5086820;28;20079;-69
2022/04/10 07:48:26;;;;;;;4.28;0.82;;;;;;;;;;5084702;28;20502;-70
2022/04/10 07:50:52;;;;;;;4.57;1.05;;;;;;;;;;5085855;28;20109;-68
2022/04/10 07:53:18;;;;;;;4.15;0.77;;;;;;;;;;5086933;28;20064;-68
2022/04/10 07:55:44;;;;;;;3.60;0.98;;;;;;;;;;5067277;28;20036;-68
2022/04/10 07:58:11;;;;;;;2.45;0.90;;;;;;;;;;5085773;28;20038;-68
2022/04/10 08:00:37;;;;;;;3.83;1.52;;;;;;;;;;5087220;28;20418;-69
2022/04/10 08:03:03;;;;;;;4.28;1.60;;;;;;;;;;5086968;28;20041;-68
2022/04/10 08:05:29;;;;;;;3.90;1.80;;;;;;;;;;5086593;28;20502;-69
2022/04/10 08:07:55;;;;;;;5.00;2.22;;;;;;;;;;5086180;28;20154;-69
2022/04/10 08:10:22;;;;;;;5.65;3.00;;;;;;;;;;5086181;28;20055;-68
2022/04/10 08:12:48;;;;;;;7.35;3.63;;;;;;;;;;5088095;28;20044;-69
2022/04/10 08:15:14;;;;;;;7.18;3.33;;;;;;;;;;5086328;28;20195;-68
2022/04/10 08:17:41;;;;;;;6.13;3.33;;;;;;;;;;5085690;28;20449;-69
2022/04/10 08:20:08;;;;;;;8.15;3.83;;;;;;;;;;5066146;28;20052;-67
2022/04/10 08:22:36;;;;;;;7.78;3.90;;;;;;;;;;5088091;28;20044;-67
2022/04/10 08:25:10;;;;;;;8.50;3.58;;;;;;;;;;5087860;28;20048;-67
2022/04/10 08:27:36;;;;;;;8.02;3.67;;;;;;;;;;5084551;28;20119;-69
2022/04/10 08:30:03;;;;;;;6.82;3.28;;;;;;;;;;5087761;28;20127;-69
2022/04/10 08:32:36;;;;;;;7.85;3.67;;;;;;;;;;5083550;28;20043;-70
2022/04/10 08:35:02;;;;;;;7.38;3.33;;;;;;;;;;5085539;28;20113;-69
2022/04/10 08:37:28;;;;;;;6.97;3.30;;;;;;;;;;5086314;28;20081;-69
2022/04/10 08:39:54;;;;;;;7.30;3.28;;;;;;;;;;5080522;28;20067;-70
2022/04/10 08:42:21;;;;;;;8.40;3.10;;;;;;;;;;5091211;28;20075;-71
2022/04/10 08:44:47;;;;;;;8.65;3.65;;;;;;;;;;5091905;28;20450;-68
2022/04/10 08:47:15;;;;;;;6.07;3.15;;;;;;;;;;5092343;28;20048;-69
2022/04/10 08:49:41;;;;;;;5.95;3.17;;;;;;;;;;5074370;28;20552;-68
2022/04/10 08:52:07;;;;;;;7.13;3.38;;;;;;;;;;5090910;28;20493;-68
2022/04/10 08:54:35;;;;;;;6.00;3.10;;;;;;;;;;5091900;28;20124;-68
2022/04/10 08:57:03;;;;;;;9.43;4.13;;;;;;;;;;5091838;28;20090;-69
2022/04/10 08:59:29;;;;;;;6.78;3.67;;;;;;;;;;5091809;28;20454;-70
2022/04/10 09:01:56;;;;;;;9.88;4.25;;;;;;;;;;5090923;28;20043;-69
2022/04/10 09:04:23;;;;;;;8.82;3.85;;;;;;;;;;5086169;28;20127;-70
2022/04/10 09:06:59;;;;;;;8.95;4.05;;;;;;;;;;5090648;28;20454;-68
2022/04/10 09:09:25;;;;;;;8.57;4.00;;;;;;;;;;5090752;28;20036;-67
2022/04/10 09:11:52;;;;;;;12.98;4.20;;;;;;;;;;5071962;28;20660;-71
2022/04/10 09:14:22;;;;;;;13.63;5.75;;;;;;;;;;5090694;28;20040;-67
2022/04/10 09:17:08;;;;;;;12.23;6.65;;;;;;;;;;5090767;28;20048;-68
2022/04/10 09:19:53;;;;;;;13.18;5.65;;;;;;;;;;5091229;28;20052;-69
2022/04/10 09:22:24;;;;;;;13.27;6.15;;;;;;;;;;5079848;28;20128;-70
2022/04/10 09:25:10;;;;;;;15.00;6.13;;;;;;;;;;5053260;28;20505;-70
2022/04/10 09:27:37;;;;;;;14.07;5.82;;;;;;;;;;5074549;28;20098;-70
2022/04/10 09:30:04;;;;;;;9.27;5.25;;;;;;;;;;5089993;28;20056;-69
2022/04/10 09:32:40;;;;;;;14.70;6.25;;;;;;;;;;5090418;28;20044;-72
2022/04/10 09:35:07;;;;;;;12.25;5.13;;;;;;;;;;5089908;28;20468;-70
2022/04/10 09:37:41;;;;;;;11.73;5.07;;;;;;;;;;5091373;28;20394;-70
2022/04/10 09:40:23;;;;;;;11.55;5.35;;;;;;;;;;5089171;28;20044;-70
2022/04/10 09:42:49;;;;;;;11.70;5.82;;;;;;;;;;5091004;28;20052;-68
2022/04/10 09:45:28;;;;;;;10.23;4.78;;;;;;;;;;5088697;28;20056;-69
2022/04/10 09:47:54;;;;;;;11.82;5.30;;;;;;;;;;5090483;28;20040;-70
2022/04/10 09:50:30;;;;;;;11.40;5.00;;;;;;;;;;5070582;28;20160;-70
2022/04/10 09:52:56;;;;;;;11.27;4.85;;;;;;;;;;5086032;28;20391;-71
2022/04/10 09:55:34;;;;;;;10.00;4.65;;;;;;;;;;5090768;28;20084;-71
2022/04/10 09:58:01;;;;;;;9.18;4.47;;;;;;;;;;5090508;28;20040;-69
2022/04/10 10:00:28;;;;;;;8.85;4.57;;;;;;;;;;5090271;28;20043;-69
2022/04/10 10:02:54;;;;;;;11.10;4.53;;;;;;;;;;5090664;28;20489;-69
2022/04/10 10:05:20;;;;;;;9.88;4.32;;;;;;;;;;5090790;28;20116;-69
2022/04/10 10:07:48;;;;;;;8.75;4.00;;;;;;;;;;5090365;28;20194;-69
2022/04/10 10:10:17;;;;;;;8.60;3.75;;;;;;;;;;5090107;28;20095;-68
2022/04/10 10:12:43;;;;;;;6.68;3.63;;;;;;;;;;5090520;28;20097;-70
2022/04/10 10:15:10;;;;;;;8.85;3.42;;;;;;;;;;5090695;28;20127;-68
2022/04/10 10:17:37;;;;;;;6.80;3.53;;;;;;;;;;5090706;28;20119;-68
2022/04/10 10:20:03;;;;;;;9.32;2.90;;;;;;;;;;5089798;28;20138;-68
2022/04/10 10:22:29;;;;;;;8.57;3.10;;;;;;;;;;5090421;28;20048;-71
2022/04/10 10:25:04;;;;;;;8.73;3.47;;;;;;;;;;5089502;28;20052;-69
2022/04/10 10:27:33;;;;;;;9.73;3.63;;;;;;;;;;5072135;28;20063;-69
2022/04/10 10:30:19;;;;;;;8.43;3.28;;;;;;;;;;5089265;28;20044;-68
2022/04/10 10:32:47;;;;;;;6.43;2.92;;;;;;;;;;5089426;28;20129;-69
2022/04/10 10:35:14;;;;;;;6.05;2.58;;;;;;;;;;5089892;28;20367;-68
2022/04/10 10:37:52;;;;;;;8.52;3.22;;;;;;;;;;5089377;28;20415;-68
2022/04/10 10:40:19;;;;;;;7.43;2.67;;;;;;;;;;5088746;28;20087;-69
2022/04/10 10:42:45;;;;;;;5.35;2.60;;;;;;;;;;5089824;28;20054;-68
2022/04/10 10:45:30;;;;;;;6.63;2.55;;;;;;;;;;5089460;28;20441;-68
2022/04/10 10:48:15;;;;;;;7.70;2.63;;;;;;;;;;5088908;28;20048;-69
2022/04/10 10:50:41;;;;;;;6.07;2.30;;;;;;;;;;5053741;28;20040;-68
2022/04/10 10:53:07;;;;;;;8.32;2.47;;;;;;;;;;5088647;28;20056;-68
2022/04/10 10:55:49;;;;;;;6.75;2.45;;;;;;;;;;5088346;28;20044;-69
2022/04/10 10:58:16;;;;;;;7.53;2.50;;;;;;;;;;5088673;28;20067;-68
2022/04/10 11:00:45;;;;;;;4.97;2.05;;;;;;;;;;5088478;28;20497;-68
2022/04/10 11:03:11;;;;;;;5.13;2.40;;;;;;;;;;5088582;28;20715;-69
2022/04/10 11:05:38;;;;;;;6.95;2.53;;;;;;;;;;5088390;28;20066;-68
2022/04/10 11:08:13;;;;;;;5.38;2.40;;;;;;;;;;5070783;28;20402;-67
2022/04/10 11:10:40;;;;;;;4.43;1.90;;;;;;;;;;5088504;28;20097;-68
2022/04/10 11:13:07;;;;;;;6.95;2.20;;;;;;;;;;5088024;28;20134;-68
2022/04/10 11:15:55;;;;;;;5.72;2.15;;;;;;;;;;5088472;28;20174;-69
2022/04/10 11:18:31;;;;;;;5.53;1.98;;;;;;;;;;5088734;28;20048;-68
2022/04/10 11:21:10;;;;;;;4.40;2.00;;;;;;;;;;5087753;28;20102;-67
2022/04/10 11:23:41;;;;;;;4.85;1.40;;;;;;;;;;5087994;28;20048;-67
2022/04/10 11:26:13;;;;;;;5.47;2.10;;;;;;;;;;5088081;28;20131;-69
2022/04/10 11:28:58;;;;;;;4.35;1.90;;;;;;;;;;5089010;28;20052;-69
2022/04/10 11:31:32;;;;;;;4.97;2.15;;;;;;;;;;5088394;28;20044;-67
2022/04/10 11:34:28;;;;;;;4.97;1.85;;;;;;;;;;5088389;28;20127;-67
2022/04/10 11:36:59;;;;;;;4.93;1.70;;;;;;;;;;5062283;28;20077;-68
2022/04/10 11:39:29;;;;;;;5.53;1.67;;;;;;;;;;5070563;28;20196;-69
2022/04/10 11:41:59;;;;;;;3.88;1.60;;;;;;;;;;5088043;28;20131;-71
2022/04/10 11:44:25;;;;;;;5.70;2.10;;;;;;;;;;5088666;28;20048;-69
2022/04/10 11:46:51;;;;;;;6.28;1.80;;;;;;;;;;5088665;28;20047;-70
2022/04/10 11:49:19;;;;;;;4.30;1.65;;;;;;;;;;5088686;28;20044;-71
2022/04/10 11:51:55;;;;;;;4.68;1.67;;;;;;;;;;5069124;28;20109;-70
2022/04/10 11:54:24;;;;;;;5.47;1.70;;;;;;;;;;5088206;28;20162;-70
2022/04/10 11:56:51;;;;;;;5.32;1.58;;;;;;;;;;5087821;28;20451;-69
2022/04/10 11:59:18;;;;;;;12.90;1.70;;;;;;;;;;5086726;28;20350;-67
2022/04/10 12:01:44;;;;;;;8.63;1.70;;;;;;;;;;5087726;28;20079;-67
2022/04/10 12:04:10;;;;;;;4.80;1.73;;;;;;;;;;5087507;28;20285;-67
2022/04/10 12:06:36;;;;;;;5.65;1.70;;;;;;;;;;5087904;28;20050;-67
2022/04/10 12:09:02;;;;;;;4.15;1.50;;;;;;;;;;5069430;28;20094;-67
2022/04/10 12:11:37;;;;;;;4.60;1.55;;;;;;;;;;5088098;28;20076;-68
2022/04/10 12:14:14;;;;;;;7.75;1.90;;;;;;;;;;5088139;28;20520;-68
2022/04/10 12:16:43;;;;;;;4.22;1.55;;;;;;;;;;5087600;28;20040;-67
2022/04/10 12:19:09;;;;;;;7.65;1.58;;;;;;;;;;5088334;28;20044;-67
2022/04/10 12:21:35;;;;;;;5.00;1.80;;;;;;;;;;5087652;28;20796;-67
2022/04/10 12:24:03;;;;;;;5.20;1.67;;;;;;;;;;5087721;28;20505;-67
2022/04/10 12:26:29;;;;;;;5.65;1.35;;;;;;;;;;5087362;28;20064;-68
2022/04/10 12:28:56;;;;;;;5.40;1.35;;;;;;;;;;5087806;28;20079;-68
2022/04/10 12:31:22;;;;;;;4.55;1.35;;;;;;;;;;5087425;28;20040;-68
2022/04/10 12:33:48;;;;;;;4.00;1.20;;;;;;;;;;5069535;28;20089;-68
2022/04/10 12:36:18;;;;;;;4.07;1.20;;;;;;;;;;5087344;28;20108;-67
2022/04/10 12:38:44;;;;;;;4.35;1.38;;;;;;;;;;5088017;28;20071;-67
2022/04/10 12:41:10;;;;;;;2.80;0.95;;;;;;;;;;5086913;28;20071;-67
2022/04/10 12:43:36;;;;;;;3.22;1.20;;;;;;;;;;5087475;28;20093;-67
2022/04/10 12:46:12;;;;;;;3.45;0.95;;;;;;;;;;5087748;28;20106;-67
2022/04/10 12:48:39;;;;;;;4.30;1.20;;;;;;;;;;5087895;28;20087;-66
2022/04/10 12:51:09;;;;;;;3.38;1.10;;;;;;;;;;5087187;28;20036;-67
2022/04/10 12:53:36;;;;;;;4.15;1.00;;;;;;;;;;5087912;28;20058;-67
2022/04/10 12:56:02;;;;;;;2.90;1.10;;;;;;;;;;5086885;28;20188;-67
2022/04/10 12:58:31;;;;;;;3.10;1.08;;;;;;;;;;5088025;28;20040;-67
2022/04/10 13:00:59;;;;;;;3.63;1.00;;;;;;;;;;5087310;28;20044;-67
2022/04/10 13:03:26;;;;;;;3.25;1.23;;;;;;;;;;5087623;28;20406;-67
2022/04/10 13:06:01;;;;;;;3.60;1.20;;;;;;;;;;5087407;28;20135;-67
2022/04/10 13:08:28;;;;;;;6.80;1.27;;;;;;;;;;5086892;28;20086;-67
2022/04/10 13:10:56;;;;;;;5.30;1.08;;;;;;;;;;5068859;28;20032;-67
2022/04/10 13:13:22;;;;;;;6.13;1.25;;;;;;;;;;5087397;28;20126;-67
2022/04/10 13:15:48;;;;;;;3.65;1.00;;;;;;;;;;5086654;28;20111;-67
2022/04/10 13:18:15;;;;;;;4.75;0.95;;;;;;;;;;5087347;28;20052;-67
2022/04/10 13:20:41;;;;;;;3.85;1.30;;;;;;;;;;5088709;28;20086;-67
2022/04/10 13:23:10;;;;;;;3.40;0.90;;;;;;;;;;5090855;28;20043;-67
2022/04/10 13:25:36;;;;;;;5.47;0.90;;;;;;;;;;5090995;28;20040;-67
2022/04/10 13:28:03;;;;;;;2.67;0.82;;;;;;;;;;5090333;28;20105;-67
2022/04/10 13:30:30;;;;;;;3.65;0.77;;;;;;;;;;5090860;28;20040;-67
2022/04/10 13:32:56;;;;;;;3.45;0.85;;;;;;;;;;5089934;28;20063;-67
2022/04/10 13:35:22;;;;;;;4.45;1.15;;;;;;;;;;5090712;28;20435;-69
2022/04/10 13:37:48;;;;;;;2.28;1.00;;;;;;;;;;5090179;28;20072;-70
2022/04/10 13:40:17;;;;;;;6.45;1.00;;;;;;;;;;5089482;28;20055;-68
2022/04/10 13:42:44;;;;;;;3.38;1.05;;;;;;;;;;5090362;28;20050;-68
2022/04/10 13:45:11;;;;;;;3.97;1.00;;;;;;;;;;5090815;28;20102;-69
2022/04/10 13:47:37;;;;;;;4.15;0.95;;;;;;;;;;5086497;28;20047;-69
2022/04/10 13:50:04;;;;;;;3.50;0.90;;;;;;;;;;5090054;28;20048;-68
2022/04/10 13:52:31;;;;;;;4.25;1.10;;;;;;;;;;5087018;28;20040;-68
2022/04/10 13:55:01;;;;;;;2.92;0.88;;;;;;;;;;5089972;28;20058;-68
2022/04/10 13:57:27;;;;;;;4.80;1.00;;;;;;;;;;5079623;28;20575;-68
2022/04/10 13:59:53;;;;;;;6.82;1.05;;;;;;;;;;5090325;28;20463;-68
2022/04/10 14:02:19;;;;;;;2.92;0.80;;;;;;;;;;5088885;28;20105;-68
2022/04/10 14:04:45;;;;;;;4.45;1.27;;;;;;;;;;5090106;28;20494;-68
2022/04/10 14:07:12;;;;;;;3.50;1.45;;;;;;;;;;5090159;28;20055;-68
2022/04/10 14:09:38;;;;;;;2.60;0.80;;;;;;;;;;5082634;28;20098;-68
2022/04/10 14:12:05;;;;;;;4.13;1.17;;;;;;;;;;5074579;28;20063;-68
2022/04/10 14:14:32;;;;;;;3.22;0.85;;;;;;;;;;5089955;28;20409;-68
2022/04/10 14:16:59;;;;;;;2.85;0.90;;;;;;;;;;5071932;28;20040;-68
2022/04/10 14:19:26;;;;;;;3.63;1.48;;;;;;;;;;5089741;28;20054;-68
2022/04/10 14:21:52;;;;;;;2.00;0.90;;;;;;;;;;5088668;28;20239;-68
2022/04/10 14:24:18;;;;;;;3.08;1.02;;;;;;;;;;5088614;28;20040;-68
2022/04/10 14:26:44;;;;;;;4.40;1.38;;;;;;;;;;5090205;28;20040;-68
2022/04/10 14:29:10;;;;;;;3.25;0.80;;;;;;;;;;5087999;28;20406;-69
2022/04/10 14:31:36;;;;;;;3.20;1.10;;;;;;;;;;5053917;28;20055;-67
2022/04/10 14:34:06;;;;;;;5.32;1.08;;;;;;;;;;4818137;28;10000864;-69
2022/04/10 14:36:32;;;;;;;5.38;1.30;;;;;;;;;;4940026;28;20258;-68
2022/04/10 14:38:58;;;;;;;3.58;1.55;;;;;;;;;;5045353;28;20071;-68
2022/04/10 14:41:25;;;;;;;3.67;0.77;;;;;;;;;;5045213;28;20068;-68
2022/04/10 14:43:51;;;;;;;2.47;0.90;;;;;;;;;;5047318;28;20045;-67
2022/04/10 14:46:18;;;;;;;3.53;0.73;;;;;;;;;;5049247;28;20035;-68
2022/04/10 14:48:45;;;;;;;4.20;1.48;;;;;;;;;;5049421;28;20041;-68